Airfield :
LOGIN :

Register | Disclaimer

   EN    FR    IT 

 










Legend :    VFR   Marginal VFR   IFR   Intensive IFR   Very Intensive IFR
Visi :
Ceiling :
>= 8 km
>= 3000ft
5 to 8 km
1000 to 3000 ft
1500m to 5 km
500 to 1000 ft
800 to 1500m
200 to 500 ft
< 800m
< 200 ft
Symbols :   Thunderstorms  Fog  Heavy snow  Heavy precipitations  Wind > 20 kt
SIGMETs :     Misc.  Thunderstorms  Icing  Turbulence  Mountain Waves  Volcanic Ashes







- Airport Elevation : 24 ft
- IATA code : FAO


LPFR - Faro

CURRENT METAR :
  • 200930Z 10006KT CAVOK 16/12 Q1022

EXPIRED METARs :
  • 200900Z 04004KT CAVOK 16/10 Q1022
  • 200830Z 03006KT CAVOK 14/09 Q1022
  • 200800Z 02005KT CAVOK 12/08 Q1021
  • 200730Z 03005KT CAVOK 12/07 Q1021
  • 200700Z 05007KT CAVOK 12/07 Q1020
  • 200630Z 04007KT CAVOK 13/06 Q1020

TAF TAF LPFR
Valid from the 20 at 06:00 until the 21 at 06:00 UTC


200500Z 2006/2106 06007KT CAVOK
BECMG 2009/2012 10010KT
BECMG 2016/2018 VRB03KT
No reported NOTAMs for that airfield.



MET'MAP, your aeronautical weather chart ! - Copyright ORBIFLY December 2007 - Disclaimer

ORBIFLY MET'MAP TEAM :

Programming & Development : Alexandra Zaïnal
Concept & Development : Baudouin d'Aumeries
Co-Development & Prog : Marc-Olivier Méhu
Technical & hardware support : Manuel Goepfert

Contact : metmap@orbifly.com




SOURCES & CREDITS :

   NOAA